sensor_id;sensor_type;location;lat;lon;timestamp;P1;durP1;ratioP1;P2;durP2;ratioP2
23702;SDS011;12030;50.376;8.762;2024-01-06T00:00:46;3.83;;;2.17;;
23702;SDS011;12030;50.376;8.762;2024-01-06T00:03:14;5.20;;;1.70;;
23702;SDS011;12030;50.376;8.762;2024-01-06T00:05:39;4.30;;;1.93;;
23702;SDS011;12030;50.376;8.762;2024-01-06T00:08:05;5.43;;;2.10;;
23702;SDS011;12030;50.376;8.762;2024-01-06T00:10:31;3.80;;;2.00;;
23702;SDS011;12030;50.376;8.762;2024-01-06T00:12:57;2.83;;;2.17;;
23702;SDS011;12030;50.376;8.762;2024-01-06T00:15:22;5.60;;;1.90;;
23702;SDS011;12030;50.376;8.762;2024-01-06T00:17:48;3.80;;;2.00;;
23702;SDS011;12030;50.376;8.762;2024-01-06T00:20:14;4.27;;;2.00;;
23702;SDS011;12030;50.376;8.762;2024-01-06T00:22:39;3.90;;;1.60;;
23702;SDS011;12030;50.376;8.762;2024-01-06T00:28:16;3.90;;;1.80;;
23702;SDS011;12030;50.376;8.762;2024-01-06T00:30:42;5.07;;;2.20;;
23702;SDS011;12030;50.376;8.762;2024-01-06T00:33:07;2.43;;;1.80;;
23702;SDS011;12030;50.376;8.762;2024-01-06T00:35:33;7.60;;;2.13;;
23702;SDS011;12030;50.376;8.762;2024-01-06T00:37:58;6.67;;;2.07;;
23702;SDS011;12030;50.376;8.762;2024-01-06T00:40:25;4.77;;;1.60;;
23702;SDS011;12030;50.376;8.762;2024-01-06T00:42:51;4.30;;;2.20;;
23702;SDS011;12030;50.376;8.762;2024-01-06T00:45:16;3.60;;;1.67;;
23702;SDS011;12030;50.376;8.762;2024-01-06T00:47:42;2.63;;;1.87;;
23702;SDS011;12030;50.376;8.762;2024-01-06T00:50:07;4.20;;;2.03;;
23702;SDS011;12030;50.376;8.762;2024-01-06T00:52:33;5.33;;;2.00;;
23702;SDS011;12030;50.376;8.762;2024-01-06T00:54:59;2.23;;;1.90;;
23702;SDS011;12030;50.376;8.762;2024-01-06T00:57:24;5.10;;;1.73;;
23702;SDS011;12030;50.376;8.762;2024-01-06T00:59:50;4.27;;;1.90;;
23702;SDS011;12030;50.376;8.762;2024-01-06T01:02:15;5.10;;;2.10;;
23702;SDS011;12030;50.376;8.762;2024-01-06T01:04:41;3.13;;;2.03;;
23702;SDS011;12030;50.376;8.762;2024-01-06T01:07:07;6.77;;;1.90;;
23702;SDS011;12030;50.376;8.762;2024-01-06T01:09:32;7.33;;;2.23;;
23702;SDS011;12030;50.376;8.762;2024-01-06T01:11:58;2.80;;;1.70;;
23702;SDS011;12030;50.376;8.762;2024-01-06T01:14:23;4.77;;;1.80;;
23702;SDS011;12030;50.376;8.762;2024-01-06T01:16:49;3.65;;;1.70;;
23702;SDS011;12030;50.376;8.762;2024-01-06T01:19:14;3.40;;;1.73;;
23702;SDS011;12030;50.376;8.762;2024-01-06T01:21:40;2.83;;;1.70;;
23702;SDS011;12030;50.376;8.762;2024-01-06T01:24:05;5.53;;;1.60;;
23702;SDS011;12030;50.376;8.762;2024-01-06T01:26:31;3.70;;;1.80;;
23702;SDS011;12030;50.376;8.762;2024-01-06T01:28:56;3.97;;;1.87;;
23702;SDS011;12030;50.376;8.762;2024-01-06T01:31:22;4.33;;;1.67;;
23702;SDS011;12030;50.376;8.762;2024-01-06T01:33:47;3.70;;;1.97;;
23702;SDS011;12030;50.376;8.762;2024-01-06T01:36:13;7.90;;;2.03;;
23702;SDS011;12030;50.376;8.762;2024-01-06T01:38:38;3.47;;;1.77;;
23702;SDS011;12030;50.376;8.762;2024-01-06T01:41:04;5.27;;;2.40;;
23702;SDS011;12030;50.376;8.762;2024-01-06T01:43:29;6.70;;;2.33;;
23702;SDS011;12030;50.376;8.762;2024-01-06T01:45:55;6.73;;;2.50;;
23702;SDS011;12030;50.376;8.762;2024-01-06T01:48:22;6.70;;;2.63;;
23702;SDS011;12030;50.376;8.762;2024-01-06T01:50:48;6.00;;;2.57;;
23702;SDS011;12030;50.376;8.762;2024-01-06T01:53:14;3.77;;;2.30;;
23702;SDS011;12030;50.376;8.762;2024-01-06T01:55:43;5.93;;;2.20;;
23702;SDS011;12030;50.376;8.762;2024-01-06T01:58:09;5.10;;;2.60;;
23702;SDS011;12030;50.376;8.762;2024-01-06T02:00:37;3.87;;;2.30;;
23702;SDS011;12030;50.376;8.762;2024-01-06T02:03:04;4.43;;;2.83;;
23702;SDS011;12030;50.376;8.762;2024-01-06T02:05:30;6.53;;;2.60;;
23702;SDS011;12030;50.376;8.762;2024-01-06T02:07:56;4.67;;;2.90;;
23702;SDS011;12030;50.376;8.762;2024-01-06T02:10:22;5.60;;;2.70;;
23702;SDS011;12030;50.376;8.762;2024-01-06T02:12:48;3.97;;;2.70;;
23702;SDS011;12030;50.376;8.762;2024-01-06T02:15:14;3.77;;;2.93;;
23702;SDS011;12030;50.376;8.762;2024-01-06T02:17:39;4.27;;;2.80;;
23702;SDS011;12030;50.376;8.762;2024-01-06T02:20:06;5.03;;;3.03;;
23702;SDS011;12030;50.376;8.762;2024-01-06T02:22:33;4.80;;;2.63;;
23702;SDS011;12030;50.376;8.762;2024-01-06T02:25:01;4.23;;;2.60;;
23702;SDS011;12030;50.376;8.762;2024-01-06T02:27:27;4.23;;;2.30;;
23702;SDS011;12030;50.376;8.762;2024-01-06T02:29:53;4.77;;;2.30;;
23702;SDS011;12030;50.376;8.762;2024-01-06T02:32:18;4.60;;;2.30;;
23702;SDS011;12030;50.376;8.762;2024-01-06T02:34:44;3.93;;;2.40;;
23702;SDS011;12030;50.376;8.762;2024-01-06T02:37:09;6.47;;;2.93;;
23702;SDS011;12030;50.376;8.762;2024-01-06T02:39:35;5.53;;;2.23;;
23702;SDS011;12030;50.376;8.762;2024-01-06T02:42:00;3.77;;;2.50;;
23702;SDS011;12030;50.376;8.762;2024-01-06T02:44:26;4.17;;;2.07;;
23702;SDS011;12030;50.376;8.762;2024-01-06T02:46:51;5.43;;;2.57;;
23702;SDS011;12030;50.376;8.762;2024-01-06T02:49:17;5.43;;;2.30;;
23702;SDS011;12030;50.376;8.762;2024-01-06T02:51:42;6.17;;;2.53;;
23702;SDS011;12030;50.376;8.762;2024-01-06T02:54:08;3.90;;;2.60;;
23702;SDS011;12030;50.376;8.762;2024-01-06T02:56:33;4.80;;;2.30;;
23702;SDS011;12030;50.376;8.762;2024-01-06T02:58:59;6.20;;;2.63;;
23702;SDS011;12030;50.376;8.762;2024-01-06T03:01:24;4.47;;;2.47;;
23702;SDS011;12030;50.376;8.762;2024-01-06T03:03:50;4.20;;;2.30;;
23702;SDS011;12030;50.376;8.762;2024-01-06T03:06:15;5.23;;;2.30;;
23702;SDS011;12030;50.376;8.762;2024-01-06T03:08:41;6.73;;;2.40;;
23702;SDS011;12030;50.376;8.762;2024-01-06T03:11:06;4.13;;;2.30;;
23702;SDS011;12030;50.376;8.762;2024-01-06T03:13:32;5.27;;;2.10;;
23702;SDS011;12030;50.376;8.762;2024-01-06T03:15:57;5.20;;;2.43;;
23702;SDS011;12030;50.376;8.762;2024-01-06T03:18:28;4.97;;;2.43;;
23702;SDS011;12030;50.376;8.762;2024-01-06T03:20:53;7.10;;;2.63;;
23702;SDS011;12030;50.376;8.762;2024-01-06T03:23:19;5.93;;;2.27;;
23702;SDS011;12030;50.376;8.762;2024-01-06T03:25:44;4.07;;;2.27;;
23702;SDS011;12030;50.376;8.762;2024-01-06T03:28:10;5.33;;;2.20;;
23702;SDS011;12030;50.376;8.762;2024-01-06T03:30:35;4.60;;;2.30;;
23702;SDS011;12030;50.376;8.762;2024-01-06T03:33:01;4.30;;;2.37;;
23702;SDS011;12030;50.376;8.762;2024-01-06T03:35:27;7.40;;;2.60;;
23702;SDS011;12030;50.376;8.762;2024-01-06T03:37:52;3.73;;;2.23;;
23702;SDS011;12030;50.376;8.762;2024-01-06T03:40:18;4.10;;;2.50;;
23702;SDS011;12030;50.376;8.762;2024-01-06T03:42:43;4.03;;;2.27;;
23702;SDS011;12030;50.376;8.762;2024-01-06T03:45:09;3.97;;;2.07;;
23702;SDS011;12030;50.376;8.762;2024-01-06T03:47:34;4.77;;;1.93;;
23702;SDS011;12030;50.376;8.762;2024-01-06T03:50:00;7.27;;;2.03;;
23702;SDS011;12030;50.376;8.762;2024-01-06T03:52:25;5.50;;;2.17;;
23702;SDS011;12030;50.376;8.762;2024-01-06T03:54:51;2.70;;;2.00;;
23702;SDS011;12030;50.376;8.762;2024-01-06T03:57:16;4.80;;;2.33;;
23702;SDS011;12030;50.376;8.762;2024-01-06T03:59:42;3.13;;;2.00;;
23702;SDS011;12030;50.376;8.762;2024-01-06T04:02:07;5.67;;;2.20;;
23702;SDS011;12030;50.376;8.762;2024-01-06T04:04:33;3.67;;;2.10;;
23702;SDS011;12030;50.376;8.762;2024-01-06T04:06:58;3.47;;;2.10;;
23702;SDS011;12030;50.376;8.762;2024-01-06T04:09:26;5.53;;;1.90;;
23702;SDS011;12030;50.376;8.762;2024-01-06T04:11:52;3.83;;;2.03;;
23702;SDS011;12030;50.376;8.762;2024-01-06T04:14:17;4.77;;;2.13;;
23702;SDS011;12030;50.376;8.762;2024-01-06T04:16:43;4.67;;;2.50;;
23702;SDS011;12030;50.376;8.762;2024-01-06T04:19:08;3.70;;;2.20;;
23702;SDS011;12030;50.376;8.762;2024-01-06T04:21:36;3.90;;;2.20;;
23702;SDS011;12030;50.376;8.762;2024-01-06T04:24:01;5.53;;;2.77;;
23702;SDS011;12030;50.376;8.762;2024-01-06T04:26:27;3.90;;;2.43;;
23702;SDS011;12030;50.376;8.762;2024-01-06T04:28:52;4.53;;;2.43;;
23702;SDS011;12030;50.376;8.762;2024-01-06T04:31:18;6.50;;;2.47;;
23702;SDS011;12030;50.376;8.762;2024-01-06T04:33:43;4.50;;;2.27;;
23702;SDS011;12030;50.376;8.762;2024-01-06T04:36:09;3.57;;;2.40;;
23702;SDS011;12030;50.376;8.762;2024-01-06T04:38:34;4.37;;;2.23;;
23702;SDS011;12030;50.376;8.762;2024-01-06T04:41:00;4.63;;;2.30;;
23702;SDS011;12030;50.376;8.762;2024-01-06T04:43:25;6.80;;;2.50;;
23702;SDS011;12030;50.376;8.762;2024-01-06T04:45:51;4.23;;;2.23;;
23702;SDS011;12030;50.376;8.762;2024-01-06T04:48:16;4.67;;;2.17;;
23702;SDS011;12030;50.376;8.762;2024-01-06T04:50:42;4.13;;;2.20;;
23702;SDS011;12030;50.376;8.762;2024-01-06T04:53:08;3.37;;;2.33;;
23702;SDS011;12030;50.376;8.762;2024-01-06T04:55:33;3.87;;;2.27;;
23702;SDS011;12030;50.376;8.762;2024-01-06T04:57:59;7.57;;;3.53;;
23702;SDS011;12030;50.376;8.762;2024-01-06T05:00:24;5.37;;;2.60;;
23702;SDS011;12030;50.376;8.762;2024-01-06T05:02:50;3.73;;;2.50;;
23702;SDS011;12030;50.376;8.762;2024-01-06T05:05:16;5.83;;;2.40;;
23702;SDS011;12030;50.376;8.762;2024-01-06T05:07:42;4.17;;;2.53;;
23702;SDS011;12030;50.376;8.762;2024-01-06T05:10:07;5.87;;;2.40;;
23702;SDS011;12030;50.376;8.762;2024-01-06T05:12:33;3.77;;;2.63;;
23702;SDS011;12030;50.376;8.762;2024-01-06T05:14:59;4.90;;;2.60;;
23702;SDS011;12030;50.376;8.762;2024-01-06T05:17:24;7.03;;;2.90;;
23702;SDS011;12030;50.376;8.762;2024-01-06T05:19:50;4.07;;;2.40;;
23702;SDS011;12030;50.376;8.762;2024-01-06T05:22:15;4.67;;;2.20;;
23702;SDS011;12030;50.376;8.762;2024-01-06T05:24:41;4.50;;;2.63;;
23702;SDS011;12030;50.376;8.762;2024-01-06T05:27:06;4.93;;;2.37;;
23702;SDS011;12030;50.376;8.762;2024-01-06T05:29:32;4.03;;;2.50;;
23702;SDS011;12030;50.376;8.762;2024-01-06T05:31:58;5.73;;;2.57;;
23702;SDS011;12030;50.376;8.762;2024-01-06T05:34:23;3.50;;;2.03;;
23702;SDS011;12030;50.376;8.762;2024-01-06T05:36:49;4.87;;;2.23;;
23702;SDS011;12030;50.376;8.762;2024-01-06T05:39:14;6.57;;;2.40;;
23702;SDS011;12030;50.376;8.762;2024-01-06T05:41:40;4.67;;;2.50;;
23702;SDS011;12030;50.376;8.762;2024-01-06T05:44:06;3.70;;;2.00;;
23702;SDS011;12030;50.376;8.762;2024-01-06T05:46:32;3.13;;;2.00;;
23702;SDS011;12030;50.376;8.762;2024-01-06T05:48:58;3.43;;;2.30;;
23702;SDS011;12030;50.376;8.762;2024-01-06T05:51:24;5.67;;;2.23;;
23702;SDS011;12030;50.376;8.762;2024-01-06T05:53:50;7.07;;;2.30;;
23702;SDS011;12030;50.376;8.762;2024-01-06T05:56:25;9.80;;;2.80;;
23702;SDS011;12030;50.376;8.762;2024-01-06T05:58:51;5.03;;;2.23;;
23702;SDS011;12030;50.376;8.762;2024-01-06T06:01:17;6.17;;;2.50;;
23702;SDS011;12030;50.376;8.762;2024-01-06T06:03:44;3.80;;;2.23;;
23702;SDS011;12030;50.376;8.762;2024-01-06T06:06:09;2.90;;;2.37;;
23702;SDS011;12030;50.376;8.762;2024-01-06T06:08:35;8.80;;;4.60;;
23702;SDS011;12030;50.376;8.762;2024-01-06T06:11:01;6.83;;;2.80;;
23702;SDS011;12030;50.376;8.762;2024-01-06T06:13:27;7.63;;;2.63;;
23702;SDS011;12030;50.376;8.762;2024-01-06T06:15:53;5.43;;;2.57;;
23702;SDS011;12030;50.376;8.762;2024-01-06T06:18:20;4.53;;;2.47;;
23702;SDS011;12030;50.376;8.762;2024-01-06T06:20:45;4.10;;;2.27;;
23702;SDS011;12030;50.376;8.762;2024-01-06T06:23:12;5.40;;;2.30;;
23702;SDS011;12030;50.376;8.762;2024-01-06T06:25:38;5.10;;;2.17;;
23702;SDS011;12030;50.376;8.762;2024-01-06T06:28:04;6.40;;;2.47;;
23702;SDS011;12030;50.376;8.762;2024-01-06T06:30:29;3.37;;;2.27;;
23702;SDS011;12030;50.376;8.762;2024-01-06T06:32:55;3.70;;;2.13;;
23702;SDS011;12030;50.376;8.762;2024-01-06T06:35:21;4.17;;;2.07;;
23702;SDS011;12030;50.376;8.762;2024-01-06T06:37:50;4.37;;;2.07;;
23702;SDS011;12030;50.376;8.762;2024-01-06T06:40:16;4.37;;;2.07;;
23702;SDS011;12030;50.376;8.762;2024-01-06T06:42:41;3.00;;;2.07;;
23702;SDS011;12030;50.376;8.762;2024-01-06T06:45:07;6.43;;;2.77;;
23702;SDS011;12030;50.376;8.762;2024-01-06T06:47:33;3.77;;;2.33;;
23702;SDS011;12030;50.376;8.762;2024-01-06T06:49:58;8.47;;;2.77;;
23702;SDS011;12030;50.376;8.762;2024-01-06T06:52:24;7.07;;;2.43;;
23702;SDS011;12030;50.376;8.762;2024-01-06T06:54:49;4.37;;;2.53;;
23702;SDS011;12030;50.376;8.762;2024-01-06T06:57:17;4.53;;;1.90;;
23702;SDS011;12030;50.376;8.762;2024-01-06T06:59:43;3.73;;;2.40;;
23702;SDS011;12030;50.376;8.762;2024-01-06T07:02:08;8.63;;;3.90;;
23702;SDS011;12030;50.376;8.762;2024-01-06T07:04:34;6.97;;;4.77;;
23702;SDS011;12030;50.376;8.762;2024-01-06T07:07:00;9.40;;;5.30;;
23702;SDS011;12030;50.376;8.762;2024-01-06T07:09:25;9.63;;;4.43;;
23702;SDS011;12030;50.376;8.762;2024-01-06T07:11:50;5.00;;;2.50;;
23702;SDS011;12030;50.376;8.762;2024-01-06T07:14:16;5.10;;;2.53;;
23702;SDS011;12030;50.376;8.762;2024-01-06T07:16:42;5.67;;;3.07;;
23702;SDS011;12030;50.376;8.762;2024-01-06T07:19:07;5.73;;;2.63;;
23702;SDS011;12030;50.376;8.762;2024-01-06T07:21:33;4.73;;;2.30;;
23702;SDS011;12030;50.376;8.762;2024-01-06T07:23:59;5.97;;;2.20;;
23702;SDS011;12030;50.376;8.762;2024-01-06T07:26:26;3.27;;;2.30;;
23702;SDS011;12030;50.376;8.762;2024-01-06T07:28:52;5.17;;;2.57;;
23702;SDS011;12030;50.376;8.762;2024-01-06T07:31:18;6.00;;;2.80;;
23702;SDS011;12030;50.376;8.762;2024-01-06T07:33:43;5.17;;;2.33;;
23702;SDS011;12030;50.376;8.762;2024-01-06T07:36:09;4.07;;;2.33;;
23702;SDS011;12030;50.376;8.762;2024-01-06T07:38:34;3.93;;;2.87;;
23702;SDS011;12030;50.376;8.762;2024-01-06T07:41:03;6.53;;;2.53;;
23702;SDS011;12030;50.376;8.762;2024-01-06T07:43:31;4.73;;;2.50;;
23702;SDS011;12030;50.376;8.762;2024-01-06T07:45:56;5.13;;;2.40;;
23702;SDS011;12030;50.376;8.762;2024-01-06T07:48:22;5.10;;;2.50;;
23702;SDS011;12030;50.376;8.762;2024-01-06T07:50:47;4.70;;;2.30;;
23702;SDS011;12030;50.376;8.762;2024-01-06T07:53:13;5.13;;;2.50;;
23702;SDS011;12030;50.376;8.762;2024-01-06T07:55:39;5.20;;;2.40;;
23702;SDS011;12030;50.376;8.762;2024-01-06T07:58:05;5.80;;;2.40;;
23702;SDS011;12030;50.376;8.762;2024-01-06T08:00:30;6.37;;;2.57;;
23702;SDS011;12030;50.376;8.762;2024-01-06T08:02:56;3.97;;;2.30;;
23702;SDS011;12030;50.376;8.762;2024-01-06T08:05:22;4.60;;;2.20;;
23702;SDS011;12030;50.376;8.762;2024-01-06T08:07:47;4.87;;;2.53;;
23702;SDS011;12030;50.376;8.762;2024-01-06T08:10:13;3.67;;;2.40;;
23702;SDS011;12030;50.376;8.762;2024-01-06T08:12:38;5.77;;;2.40;;
23702;SDS011;12030;50.376;8.762;2024-01-06T08:15:04;4.33;;;2.53;;
23702;SDS011;12030;50.376;8.762;2024-01-06T08:17:30;6.13;;;2.63;;
23702;SDS011;12030;50.376;8.762;2024-01-06T08:19:55;3.37;;;2.43;;
23702;SDS011;12030;50.376;8.762;2024-01-06T08:22:21;5.13;;;2.50;;
23702;SDS011;12030;50.376;8.762;2024-01-06T08:24:47;3.80;;;2.40;;
23702;SDS011;12030;50.376;8.762;2024-01-06T08:27:12;6.60;;;2.80;;
23702;SDS011;12030;50.376;8.762;2024-01-06T08:29:38;4.67;;;2.57;;
23702;SDS011;12030;50.376;8.762;2024-01-06T08:32:04;4.90;;;2.53;;
23702;SDS011;12030;50.376;8.762;2024-01-06T08:34:30;6.63;;;2.80;;
23702;SDS011;12030;50.376;8.762;2024-01-06T08:36:55;4.67;;;2.80;;
23702;SDS011;12030;50.376;8.762;2024-01-06T08:39:21;6.20;;;3.00;;
23702;SDS011;12030;50.376;8.762;2024-01-06T08:41:47;3.90;;;2.30;;
23702;SDS011;12030;50.376;8.762;2024-01-06T08:44:13;5.27;;;2.73;;
23702;SDS011;12030;50.376;8.762;2024-01-06T08:46:39;6.07;;;2.73;;
23702;SDS011;12030;50.376;8.762;2024-01-06T08:49:04;6.57;;;3.37;;
23702;SDS011;12030;50.376;8.762;2024-01-06T08:51:30;5.97;;;2.73;;
23702;SDS011;12030;50.376;8.762;2024-01-06T08:53:56;5.37;;;2.90;;
23702;SDS011;12030;50.376;8.762;2024-01-06T08:56:21;6.13;;;2.70;;
23702;SDS011;12030;50.376;8.762;2024-01-06T08:58:47;4.00;;;2.47;;
23702;SDS011;12030;50.376;8.762;2024-01-06T09:01:13;5.77;;;2.60;;
23702;SDS011;12030;50.376;8.762;2024-01-06T09:03:41;5.87;;;2.20;;
23702;SDS011;12030;50.376;8.762;2024-01-06T09:06:06;3.43;;;2.50;;
23702;SDS011;12030;50.376;8.762;2024-01-06T09:08:32;3.33;;;2.83;;
23702;SDS011;12030;50.376;8.762;2024-01-06T09:10:57;6.77;;;2.70;;
23702;SDS011;12030;50.376;8.762;2024-01-06T09:13:23;4.27;;;2.40;;
23702;SDS011;12030;50.376;8.762;2024-01-06T09:15:52;5.40;;;2.30;;
23702;SDS011;12030;50.376;8.762;2024-01-06T09:18:18;6.50;;;2.70;;
23702;SDS011;12030;50.376;8.762;2024-01-06T09:20:44;4.27;;;2.63;;
23702;SDS011;12030;50.376;8.762;2024-01-06T09:23:12;5.90;;;2.83;;
23702;SDS011;12030;50.376;8.762;2024-01-06T09:25:38;7.03;;;2.83;;
23702;SDS011;12030;50.376;8.762;2024-01-06T09:28:05;6.37;;;2.93;;
23702;SDS011;12030;50.376;8.762;2024-01-06T09:30:30;4.73;;;2.90;;
23702;SDS011;12030;50.376;8.762;2024-01-06T09:32:56;8.33;;;2.97;;
23702;SDS011;12030;50.376;8.762;2024-01-06T09:35:21;5.13;;;3.10;;
23702;SDS011;12030;50.376;8.762;2024-01-06T09:37:48;6.47;;;2.77;;
23702;SDS011;12030;50.376;8.762;2024-01-06T09:40:14;6.53;;;3.13;;
23702;SDS011;12030;50.376;8.762;2024-01-06T09:42:46;6.23;;;3.30;;
23702;SDS011;12030;50.376;8.762;2024-01-06T09:45:11;7.47;;;2.97;;
23702;SDS011;12030;50.376;8.762;2024-01-06T09:47:37;7.00;;;3.37;;
23702;SDS011;12030;50.376;8.762;2024-01-06T09:50:05;5.57;;;3.73;;
23702;SDS011;12030;50.376;8.762;2024-01-06T09:52:34;5.90;;;4.17;;
23702;SDS011;12030;50.376;8.762;2024-01-06T09:55:06;10.23;;;3.60;;
23702;SDS011;12030;50.376;8.762;2024-01-06T09:57:35;5.60;;;3.47;;
23702;SDS011;12030;50.376;8.762;2024-01-06T10:00:01;6.47;;;3.17;;
23702;SDS011;12030;50.376;8.762;2024-01-06T10:02:27;5.90;;;3.40;;
23702;SDS011;12030;50.376;8.762;2024-01-06T10:04:53;4.53;;;3.63;;
23702;SDS011;12030;50.376;8.762;2024-01-06T10:07:18;4.63;;;3.07;;
23702;SDS011;12030;50.376;8.762;2024-01-06T10:09:44;4.93;;;3.43;;
23702;SDS011;12030;50.376;8.762;2024-01-06T10:12:09;5.57;;;3.53;;
23702;SDS011;12030;50.376;8.762;2024-01-06T10:14:35;6.03;;;3.50;;
23702;SDS011;12030;50.376;8.762;2024-01-06T10:17:02;5.90;;;3.80;;
23702;SDS011;12030;50.376;8.762;2024-01-06T10:19:32;6.00;;;3.70;;
23702;SDS011;12030;50.376;8.762;2024-01-06T10:21:57;7.20;;;3.40;;
23702;SDS011;12030;50.376;8.762;2024-01-06T10:24:26;3.90;;;3.23;;
23702;SDS011;12030;50.376;8.762;2024-01-06T10:26:52;4.80;;;3.37;;
23702;SDS011;12030;50.376;8.762;2024-01-06T10:29:18;7.70;;;3.30;;
23702;SDS011;12030;50.376;8.762;2024-01-06T10:31:43;5.70;;;2.87;;
23702;SDS011;12030;50.376;8.762;2024-01-06T10:34:09;5.00;;;3.03;;
23702;SDS011;12030;50.376;8.762;2024-01-06T10:36:35;3.90;;;3.30;;
23702;SDS011;12030;50.376;8.762;2024-01-06T10:39:02;4.30;;;3.00;;
23702;SDS011;12030;50.376;8.762;2024-01-06T10:41:28;4.90;;;3.27;;
23702;SDS011;12030;50.376;8.762;2024-01-06T10:43:55;4.27;;;2.97;;
23702;SDS011;12030;50.376;8.762;2024-01-06T10:46:26;6.57;;;3.27;;
23702;SDS011;12030;50.376;8.762;2024-01-06T10:48:53;6.07;;;2.97;;
23702;SDS011;12030;50.376;8.762;2024-01-06T10:51:21;4.70;;;3.10;;
23702;SDS011;12030;50.376;8.762;2024-01-06T10:53:50;8.33;;;4.00;;
23702;SDS011;12030;50.376;8.762;2024-01-06T10:56:16;5.03;;;3.33;;
23702;SDS011;12030;50.376;8.762;2024-01-06T10:58:46;5.90;;;3.47;;
23702;SDS011;12030;50.376;8.762;2024-01-06T11:01:14;6.30;;;3.50;;
23702;SDS011;12030;50.376;8.762;2024-01-06T11:03:45;6.50;;;3.47;;
23702;SDS011;12030;50.376;8.762;2024-01-06T11:06:11;5.73;;;3.03;;
23702;SDS011;12030;50.376;8.762;2024-01-06T11:08:41;9.20;;;3.87;;
23702;SDS011;12030;50.376;8.762;2024-01-06T11:11:18;7.73;;;3.40;;
23702;SDS011;12030;50.376;8.762;2024-01-06T11:13:44;4.07;;;3.60;;
23702;SDS011;12030;50.376;8.762;2024-01-06T11:16:11;4.73;;;3.20;;
23702;SDS011;12030;50.376;8.762;2024-01-06T11:18:57;5.57;;;3.33;;
23702;SDS011;12030;50.376;8.762;2024-01-06T11:21:22;7.97;;;3.80;;
23702;SDS011;12030;50.376;8.762;2024-01-06T11:26:34;6.97;;;4.00;;
23702;SDS011;12030;50.376;8.762;2024-01-06T11:29:10;4.43;;;3.50;;
23702;SDS011;12030;50.376;8.762;2024-01-06T11:31:38;5.53;;;3.50;;
23702;SDS011;12030;50.376;8.762;2024-01-06T11:34:16;5.30;;;3.50;;
23702;SDS011;12030;50.376;8.762;2024-01-06T11:36:44;7.73;;;3.83;;
23702;SDS011;12030;50.376;8.762;2024-01-06T11:42:04;3.53;;;3.17;;
23702;SDS011;12030;50.376;8.762;2024-01-06T11:44:33;5.93;;;3.67;;
23702;SDS011;12030;50.376;8.762;2024-01-06T11:46:59;4.40;;;3.03;;
23702;SDS011;12030;50.376;8.762;2024-01-06T11:49:26;5.53;;;3.17;;
23702;SDS011;12030;50.376;8.762;2024-01-06T11:51:56;4.90;;;3.37;;
23702;SDS011;12030;50.376;8.762;2024-01-06T11:54:21;5.63;;;3.47;;
23702;SDS011;12030;50.376;8.762;2024-01-06T11:56:48;4.20;;;3.10;;
23702;SDS011;12030;50.376;8.762;2024-01-06T11:59:13;7.53;;;3.70;;
23702;SDS011;12030;50.376;8.762;2024-01-06T12:01:39;7.47;;;3.97;;
23702;SDS011;12030;50.376;8.762;2024-01-06T12:04:05;7.73;;;4.90;;
23702;SDS011;12030;50.376;8.762;2024-01-06T12:06:31;5.37;;;3.83;;
23702;SDS011;12030;50.376;8.762;2024-01-06T12:09:04;6.23;;;3.93;;
23702;SDS011;12030;50.376;8.762;2024-01-06T12:11:34;8.70;;;3.87;;
23702;SDS011;12030;50.376;8.762;2024-01-06T12:13:59;6.80;;;4.17;;
23702;SDS011;12030;50.376;8.762;2024-01-06T12:16:25;6.90;;;3.97;;
23702;SDS011;12030;50.376;8.762;2024-01-06T12:18:54;6.77;;;4.07;;
23702;SDS011;12030;50.376;8.762;2024-01-06T12:21:22;6.93;;;4.23;;
23702;SDS011;12030;50.376;8.762;2024-01-06T12:23:48;7.30;;;4.27;;
23702;SDS011;12030;50.376;8.762;2024-01-06T12:26:13;6.27;;;4.10;;
23702;SDS011;12030;50.376;8.762;2024-01-06T12:28:39;7.57;;;4.27;;
23702;SDS011;12030;50.376;8.762;2024-01-06T12:31:04;5.73;;;4.00;;
23702;SDS011;12030;50.376;8.762;2024-01-06T12:33:34;5.03;;;4.30;;
23702;SDS011;12030;50.376;8.762;2024-01-06T12:36:02;5.83;;;4.03;;
23702;SDS011;12030;50.376;8.762;2024-01-06T12:38:29;4.70;;;3.77;;
23702;SDS011;12030;50.376;8.762;2024-01-06T12:40:55;4.30;;;3.77;;
23702;SDS011;12030;50.376;8.762;2024-01-06T12:43:21;6.90;;;4.37;;
23702;SDS011;12030;50.376;8.762;2024-01-06T12:45:46;5.27;;;3.87;;
23702;SDS011;12030;50.376;8.762;2024-01-06T12:48:12;6.20;;;3.50;;
23702;SDS011;12030;50.376;8.762;2024-01-06T12:50:38;6.20;;;3.93;;
23702;SDS011;12030;50.376;8.762;2024-01-06T12:53:03;6.47;;;3.93;;
23702;SDS011;12030;50.376;8.762;2024-01-06T12:55:29;6.70;;;3.93;;
23702;SDS011;12030;50.376;8.762;2024-01-06T12:57:55;4.27;;;3.83;;
23702;SDS011;12030;50.376;8.762;2024-01-06T13:00:20;6.43;;;4.20;;
23702;SDS011;12030;50.376;8.762;2024-01-06T13:02:46;4.77;;;3.73;;
23702;SDS011;12030;50.376;8.762;2024-01-06T13:05:11;4.73;;;3.97;;
23702;SDS011;12030;50.376;8.762;2024-01-06T13:07:38;5.47;;;3.97;;
23702;SDS011;12030;50.376;8.762;2024-01-06T13:10:04;8.40;;;4.93;;
23702;SDS011;12030;50.376;8.762;2024-01-06T13:12:30;4.57;;;3.93;;
23702;SDS011;12030;50.376;8.762;2024-01-06T13:14:56;5.93;;;3.97;;
23702;SDS011;12030;50.376;8.762;2024-01-06T13:17:21;5.13;;;4.00;;
23702;SDS011;12030;50.376;8.762;2024-01-06T13:19:47;4.83;;;3.73;;
23702;SDS011;12030;50.376;8.762;2024-01-06T13:22:12;6.40;;;4.40;;
23702;SDS011;12030;50.376;8.762;2024-01-06T13:24:39;7.07;;;4.40;;
23702;SDS011;12030;50.376;8.762;2024-01-06T13:27:05;5.43;;;4.00;;
23702;SDS011;12030;50.376;8.762;2024-01-06T13:29:31;5.87;;;3.97;;
23702;SDS011;12030;50.376;8.762;2024-01-06T13:31:57;5.93;;;3.77;;
23702;SDS011;12030;50.376;8.762;2024-01-06T13:34:24;7.00;;;4.43;;
23702;SDS011;12030;50.376;8.762;2024-01-06T13:36:50;6.53;;;4.60;;
23702;SDS011;12030;50.376;8.762;2024-01-06T13:39:15;6.23;;;4.13;;
23702;SDS011;12030;50.376;8.762;2024-01-06T13:41:45;6.83;;;5.10;;
23702;SDS011;12030;50.376;8.762;2024-01-06T13:44:12;8.40;;;5.33;;
23702;SDS011;12030;50.376;8.762;2024-01-06T13:46:38;8.27;;;5.60;;
23702;SDS011;12030;50.376;8.762;2024-01-06T13:49:06;9.83;;;6.90;;
23702;SDS011;12030;50.376;8.762;2024-01-06T13:51:31;8.43;;;6.60;;
23702;SDS011;12030;50.376;8.762;2024-01-06T13:53:57;9.43;;;6.07;;
23702;SDS011;12030;50.376;8.762;2024-01-06T13:56:23;6.60;;;5.33;;
23702;SDS011;12030;50.376;8.762;2024-01-06T13:58:48;7.77;;;4.90;;
23702;SDS011;12030;50.376;8.762;2024-01-06T14:01:16;7.97;;;5.17;;
23702;SDS011;12030;50.376;8.762;2024-01-06T14:03:41;9.50;;;5.40;;
23702;SDS011;12030;50.376;8.762;2024-01-06T14:06:07;7.17;;;4.63;;
23702;SDS011;12030;50.376;8.762;2024-01-06T14:08:34;7.43;;;5.10;;
23702;SDS011;12030;50.376;8.762;2024-01-06T14:10:59;7.13;;;4.20;;
23702;SDS011;12030;50.376;8.762;2024-01-06T14:13:25;6.20;;;4.70;;
23702;SDS011;12030;50.376;8.762;2024-01-06T14:15:51;5.10;;;3.90;;
23702;SDS011;12030;50.376;8.762;2024-01-06T14:18:16;5.53;;;3.87;;
23702;SDS011;12030;50.376;8.762;2024-01-06T14:20:42;5.33;;;4.10;;
23702;SDS011;12030;50.376;8.762;2024-01-06T14:23:07;5.53;;;4.03;;
23702;SDS011;12030;50.376;8.762;2024-01-06T14:25:35;5.33;;;4.20;;
23702;SDS011;12030;50.376;8.762;2024-01-06T14:28:01;5.37;;;4.00;;
23702;SDS011;12030;50.376;8.762;2024-01-06T14:30:26;5.10;;;3.87;;
23702;SDS011;12030;50.376;8.762;2024-01-06T14:32:52;4.37;;;3.60;;
23702;SDS011;12030;50.376;8.762;2024-01-06T14:35:17;4.17;;;3.57;;
23702;SDS011;12030;50.376;8.762;2024-01-06T14:37:43;4.10;;;3.33;;
23702;SDS011;12030;50.376;8.762;2024-01-06T14:40:12;3.50;;;3.20;;
23702;SDS011;12030;50.376;8.762;2024-01-06T14:42:38;3.73;;;3.20;;
23702;SDS011;12030;50.376;8.762;2024-01-06T14:45:04;4.27;;;3.13;;
23702;SDS011;12030;50.376;8.762;2024-01-06T14:47:30;4.23;;;3.60;;
23702;SDS011;12030;50.376;8.762;2024-01-06T14:49:57;4.03;;;3.53;;